Seago Piraeus — OXVD2 — position and weather

sailwx.info

Track history (hours):
 
Tides and Currents Weather Stations Pressure Air Temp Water Temp Dewpoint Dewpoint Depression Visibility Wind Speed Wind Dir Waves Ship Positions

Seago Piraeus

Last reported at 2016-Dec-05 21:13 UTC. Time now 2016-Dec-06 12:11 UTC.
Position N 37°55' E 024°34'.

Length 294 m; draft 12.9 m.

Type: Ship (hazmat cat A). MMSI: 219117000.

Date/timePositionNaut miles runAvg speedWind from/ knotsBaromVisibWave heightAir tempDewpointWater temp
2016-Dec-05 21:13N 37°55' E 024°34'1117.1
2016-Dec-05 20:33N 37°47' E 024°24'2015.5
2016-Dec-05 19:15N 37°36' E 024°03'1516.6
2016-Dec-05 18:21N 37°37' E 023°44'1417.3
2016-Dec-05 17:34N 37°49' E 023°36'5 4.6
2016-Dec-05 16:33N 37°51' E 023°31'0 0.0
2016-Dec-05 15:33N 37°51' E 023°31'0 0.0
2016-Dec-05 14:33N 37°51' E 023°31'0 0.0
2016-Dec-05 13:33N 37°51' E 023°31'0 0.0
2016-Dec-05 12:33N 37°51' E 023°31'0 0.0
2016-Dec-05 11:33N 37°51' E 023°31'0 0.0
2016-Dec-05 10:33N 37°51' E 023°31'0 0.0
2016-Dec-05 09:33N 37°51' E 023°31'0 0.1
2016-Dec-05 08:33N 37°51' E 023°31'0 0.0
2016-Dec-05 07:33N 37°51' E 023°31'0 0.0
2016-Dec-05 06:34N 37°51' E 023°31'0 0.0
2016-Dec-05 05:33N 37°51' E 023°31'0 0.0
2016-Dec-05 04:32N 37°51' E 023°31'0 0.0
2016-Dec-05 03:33N 37°51' E 023°31'0 0.0
2016-Dec-05 02:33N 37°51' E 023°31'0 0.0
2016-Dec-05 01:33N 37°51' E 023°31'0 0.0
2016-Dec-05 00:33N 37°51' E 023°31'0 0.0
2016-Dec-04 23:33N 37°51' E 023°31'0 0.0
2016-Dec-04 22:33N 37°51' E 023°31'0 0.0
2016-Dec-04 21:33N 37°51' E 023°31'0 0.1
2016-Dec-04 20:33N 37°51' E 023°31'0 0.1
2016-Dec-04 19:33N 37°51' E 023°31'0 0.1
2016-Dec-04 18:33N 37°51' E 023°31'0 0.0
2016-Dec-04 17:33N 37°51' E 023°31'0 0.0
2016-Dec-04 16:33N 37°51' E 023°31'0 0.0
2016-Dec-04 15:33N 37°51' E 023°31'0 0.0
2016-Dec-04 14:33N 37°51' E 023°31'0 0.0
2016-Dec-04 13:33N 37°51' E 023°31'0 0.0
2016-Dec-04 12:33N 37°51' E 023°31'0 0.0
2016-Dec-04 11:33N 37°51' E 023°31'0 0.0
2016-Dec-04 10:33N 37°51' E 023°31'0 0.0
2016-Dec-04 09:33N 37°51' E 023°31'0 0.0
2016-Dec-04 08:33N 37°51' E 023°31'0 0.0
2016-Dec-04 07:33N 37°51' E 023°31'0 0.0
2016-Dec-04 06:33N 37°51' E 023°31'0 0.0
2016-Dec-04 05:33N 37°51' E 023°31'0 0.0
2016-Dec-04 04:33N 37°51' E 023°31'0 0.0
2016-Dec-04 03:33N 37°51' E 023°31'0 0.0
2016-Dec-04 02:33N 37°51' E 023°31'0 0.0
2016-Dec-04 01:33N 37°51' E 023°31'0 0.0
2016-Dec-04 00:33N 37°51' E 023°31'0 0.0
2016-Dec-03 23:33N 37°51' E 023°31'0 0.0
2016-Dec-03 22:33N 37°51' E 023°31'0 0.0
2016-Dec-03 21:33N 37°51' E 023°31'0 0.1
2016-Dec-03 20:34N 37°51' E 023°31'2 1.7
2016-Dec-03 19:34N 37°52' E 023°33'8 7.8
2016-Dec-03 18:33N 37°47' E 023°41'1312.5
2016-Dec-03 17:33N 37°35' E 023°44'1312.1
2016-Dec-03 16:30N 37°22' E 023°41'5512.3
2016-Dec-03 12:00N 36°30' E 023°18'19012.7 070 / 21019.927.0 21.5 8.219.4
2016-Dec-02 21:00N 36°06' E 019°24'15613.0 290 / 201018.410.8 18.011.619.1
2016-Dec-02 09:00N 35°54' E 016°12'7912.0 290 / 271021.210.8 15.5 6.319.5
2016-Dec-02 02:24N 35°48' E 014°35'2 1.0
2016-Dec-02 00:17N 35°49' E 014°33'0 0.0
2016-Dec-01 16:29N 35°49' E 014°33'0 0.0
2016-Dec-01 15:33N 35°49' E 014°33'0 0.0
2016-Dec-01 14:31N 35°49' E 014°33'0 0.4
2016-Dec-01 13:33N 35°49' E 014°33'7 7.2
2016-Dec-01 12:32N 35°45' E 014°26'1313.0
2016-Dec-01 11:33N 35°51' E 014°12'1313.4
2016-Dec-01 10:33N 35°58' E 013°58'1313.3
2016-Dec-01 09:33N 36°05' E 013°44'1413.3
2016-Dec-01 08:32N 36°12' E 013°30'15213.2
2016-Nov-30 21:00N 37°24' E 010°42'4314.4 350 / 101029.610.8 15.0 4.219.4
2016-Nov-30 18:00N 37°30' E 009°48'6512.9 020 / 91030.210.8 15.0 4.219.8
2016-Nov-30 13:00N 37°12' E 008°30'21113.2 080 / 91029.727.0
2016-Nov-29 21:00N 37°06' E 004°06'17114.2 040 / 51024.110.8 19.011.818.0
2016-Nov-29 09:00N 36°36' E 000°36'8311.8 280 / 71020.010.8 18.012.717.5
2016-Nov-29 02:00N 36°24' W 001°06'7414.7 270 / 151016.810.8 17.011.317.5
2016-Nov-28 21:00N 36°12' W 002°36'1218.1 240 / 121013.910.8 16.012.416.9
2016-Nov-28 20:20N 36°11' W 002°51'23 9.6
2016-Nov-28 18:00N 36°06' W 003°18'7314.6 270 / 161013.410.8 16.012.417.2
2016-Nov-28 13:00N 36°00' W 004°48'2039.6 270 / 221012.427.0 16.512.018.5
2016-Nov-28 12:30N 36°00' W 005°12'4913.9
2016-Nov-28 09:00N 35°54' W 006°12'16013.4 270 / 151012.810.8 16.5 9.918.7
2016-Nov-27 21:00N 36°36' W 009°24'3912.9 350 / 181010.310.8 16.010.318.7
2016-Nov-27 18:00N 37°12' W 009°42'6015.3 360 / 201009.710.8 16.010.317.3
2016-Nov-27 14:07N 38°10' W 009°57'541.9
2016-Nov-27 14:00N 38°06' W 009°54'1524.1 360 / 141008.210.8 17.8 9.216.7
2016-Nov-27 13:21N 38°21' W 009°60'1113.9
2016-Nov-27 12:33N 38°31' W 010°03'1413.7
2016-Nov-27 11:33N 38°45' W 010°07'1413.7
2016-Nov-27 10:33N 38°59' W 010°06'1313.4
2016-Nov-27 09:33N 39°12' W 010°06'16813.4
2016-Nov-26 21:00N 42°00' W 010°06'9015.1 030 / 191005.910.8 15.0 9.215.6
2016-Nov-26 15:00N 43°30' W 009°54'8211.7 050 / 241005.327.0 14.0 9.114.6
2016-Nov-26 08:00N 44°42' W 009°00'8113.6 090 / 291008.110.8 14.0 8.014.5
2016-Nov-26 02:00N 45°54' W 008°06'   080 / 211010.3 5.4 11.911.914.0
Track history (hours):
 
Tides and Currents Weather Stations Pressure Air Temp Water Temp Dewpoint Dewpoint Depression Visibility Wind Speed Wind Dir Waves Ship Positions

Seago Piraeus

Last reported at 2016-Dec-05 21:13 UTC. Time now 2016-Dec-06 12:11 UTC.
Position N 37°55' E 024°34'.

Length 294 m; draft 12.9 m.

Type: Ship (hazmat cat A). MMSI: 219117000.

Date/timePositionNaut miles runAvg speedWind from/ knotsBaromVisibWave heightAir tempDewpointWater temp
2016-Dec-05 21:13N 37°55' E 024°34'1117.1
2016-Dec-05 20:33N 37°47' E 024°24'2015.5
2016-Dec-05 19:15N 37°36' E 024°03'1516.6
2016-Dec-05 18:21N 37°37' E 023°44'1417.3
2016-Dec-05 17:34N 37°49' E 023°36'5 4.6
2016-Dec-05 16:33N 37°51' E 023°31'0 0.0
2016-Dec-05 15:33N 37°51' E 023°31'0 0.0
2016-Dec-05 14:33N 37°51' E 023°31'0 0.0
2016-Dec-05 13:33N 37°51' E 023°31'0 0.0
2016-Dec-05 12:33N 37°51' E 023°31'0 0.0
2016-Dec-05 11:33N 37°51' E 023°31'0 0.0
2016-Dec-05 10:33N 37°51' E 023°31'0 0.0
2016-Dec-05 09:33N 37°51' E 023°31'0 0.1
2016-Dec-05 08:33N 37°51' E 023°31'0 0.0
2016-Dec-05 07:33N 37°51' E 023°31'0 0.0
2016-Dec-05 06:34N 37°51' E 023°31'0 0.0
2016-Dec-05 05:33N 37°51' E 023°31'0 0.0
2016-Dec-05 04:32N 37°51' E 023°31'0 0.0
2016-Dec-05 03:33N 37°51' E 023°31'0 0.0
2016-Dec-05 02:33N 37°51' E 023°31'0 0.0
2016-Dec-05 01:33N 37°51' E 023°31'0 0.0
2016-Dec-05 00:33N 37°51' E 023°31'0 0.0
2016-Dec-04 23:33N 37°51' E 023°31'0 0.0
2016-Dec-04 22:33N 37°51' E 023°31'0 0.0
2016-Dec-04 21:33N 37°51' E 023°31'0 0.1
2016-Dec-04 20:33N 37°51' E 023°31'0 0.1
2016-Dec-04 19:33N 37°51' E 023°31'0 0.1
2016-Dec-04 18:33N 37°51' E 023°31'0 0.0
2016-Dec-04 17:33N 37°51' E 023°31'0 0.0
2016-Dec-04 16:33N 37°51' E 023°31'0 0.0
2016-Dec-04 15:33N 37°51' E 023°31'0 0.0
2016-Dec-04 14:33N 37°51' E 023°31'0 0.0
2016-Dec-04 13:33N 37°51' E 023°31'0 0.0
2016-Dec-04 12:33N 37°51' E 023°31'0 0.0
2016-Dec-04 11:33N 37°51' E 023°31'0 0.0
2016-Dec-04 10:33N 37°51' E 023°31'0 0.0
2016-Dec-04 09:33N 37°51' E 023°31'0 0.0
2016-Dec-04 08:33N 37°51' E 023°31'0 0.0
2016-Dec-04 07:33N 37°51' E 023°31'0 0.0
2016-Dec-04 06:33N 37°51' E 023°31'0 0.0
2016-Dec-04 05:33N 37°51' E 023°31'0 0.0
2016-Dec-04 04:33N 37°51' E 023°31'0 0.0
2016-Dec-04 03:33N 37°51' E 023°31'0 0.0
2016-Dec-04 02:33N 37°51' E 023°31'0 0.0
2016-Dec-04 01:33N 37°51' E 023°31'0 0.0
2016-Dec-04 00:33N 37°51' E 023°31'0 0.0
2016-Dec-03 23:33N 37°51' E 023°31'0 0.0
2016-Dec-03 22:33N 37°51' E 023°31'0 0.0
2016-Dec-03 21:33N 37°51' E 023°31'0 0.1
2016-Dec-03 20:34N 37°51' E 023°31'2 1.7
2016-Dec-03 19:34N 37°52' E 023°33'8 7.8
2016-Dec-03 18:33N 37°47' E 023°41'1312.5
2016-Dec-03 17:33N 37°35' E 023°44'1312.1
2016-Dec-03 16:30N 37°22' E 023°41'5512.3
2016-Dec-03 12:00N 36°30' E 023°18'19012.7 070 / 21019.927.0 21.5 8.219.4
2016-Dec-02 21:00N 36°06' E 019°24'15613.0 290 / 201018.410.8 18.011.619.1
2016-Dec-02 09:00N 35°54' E 016°12'7912.0 290 / 271021.210.8 15.5 6.319.5
2016-Dec-02 02:24N 35°48' E 014°35'2 1.0
2016-Dec-02 00:17N 35°49' E 014°33'0 0.0
2016-Dec-01 16:29N 35°49' E 014°33'0 0.0
2016-Dec-01 15:33N 35°49' E 014°33'0 0.0
2016-Dec-01 14:31N 35°49' E 014°33'0 0.4
2016-Dec-01 13:33N 35°49' E 014°33'7 7.2
2016-Dec-01 12:32N 35°45' E 014°26'1313.0
2016-Dec-01 11:33N 35°51' E 014°12'1313.4
2016-Dec-01 10:33N 35°58' E 013°58'1313.3
2016-Dec-01 09:33N 36°05' E 013°44'1413.3
2016-Dec-01 08:32N 36°12' E 013°30'15213.2
2016-Nov-30 21:00N 37°24' E 010°42'4314.4 350 / 101029.610.8 15.0 4.219.4
2016-Nov-30 18:00N 37°30' E 009°48'6512.9 020 / 91030.210.8 15.0 4.219.8
2016-Nov-30 13:00N 37°12' E 008°30'21113.2 080 / 91029.727.0
2016-Nov-29 21:00N 37°06' E 004°06'17114.2 040 / 51024.110.8 19.011.818.0
2016-Nov-29 09:00N 36°36' E 000°36'8311.8 280 / 71020.010.8 18.012.717.5
2016-Nov-29 02:00N 36°24' W 001°06'7414.7 270 / 151016.810.8 17.011.317.5
2016-Nov-28 21:00N 36°12' W 002°36'1218.1 240 / 121013.910.8 16.012.416.9
2016-Nov-28 20:20N 36°11' W 002°51'23 9.6
2016-Nov-28 18:00N 36°06' W 003°18'7314.6 270 / 161013.410.8 16.012.417.2
2016-Nov-28 13:00N 36°00' W 004°48'2039.6 270 / 221012.427.0 16.512.018.5
2016-Nov-28 12:30N 36°00' W 005°12'4913.9
2016-Nov-28 09:00N 35°54' W 006°12'16013.4 270 / 151012.810.8 16.5 9.918.7
2016-Nov-27 21:00N 36°36' W 009°24'3912.9 350 / 181010.310.8 16.010.318.7
2016-Nov-27 18:00N 37°12' W 009°42'6015.3 360 / 201009.710.8 16.010.317.3
2016-Nov-27 14:07N 38°10' W 009°57'541.9
2016-Nov-27 14:00N 38°06' W 009°54'1524.1 360 / 141008.210.8 17.8 9.216.7
2016-Nov-27 13:21N 38°21' W 009°60'1113.9
2016-Nov-27 12:33N 38°31' W 010°03'1413.7
2016-Nov-27 11:33N 38°45' W 010°07'1413.7
2016-Nov-27 10:33N 38°59' W 010°06'1313.4
2016-Nov-27 09:33N 39°12' W 010°06'16813.4
2016-Nov-26 21:00N 42°00' W 010°06'9015.1 030 / 191005.910.8 15.0 9.215.6
2016-Nov-26 15:00N 43°30' W 009°54'8211.7 050 / 241005.327.0 14.0 9.114.6
2016-Nov-26 08:00N 44°42' W 009°00'8113.6 090 / 291008.110.8 14.0 8.014.5
2016-Nov-26 02:00N 45°54' W 008°06'   080 / 211010.3 5.4 11.911.914.0

Dump ship's entire track history